createdAt,value
2023-04-15T00:00:12.127Z,98451.00
2023-04-15T00:02:41.588Z,98448.00
2023-04-15T00:05:11.924Z,98449.00
2023-04-15T00:07:41.501Z,98458.00
2023-04-15T00:10:11.171Z,98456.00
2023-04-15T00:12:40.580Z,98458.00
2023-04-15T00:15:11.454Z,98459.00
2023-04-15T00:17:40.987Z,98458.00
2023-04-15T00:20:11.364Z,98476.00
2023-04-15T00:22:40.748Z,98471.00
2023-04-15T00:25:10.630Z,98481.00
2023-04-15T00:27:40.701Z,98484.00
2023-04-15T00:30:10.491Z,98485.00
2023-04-15T00:32:39.826Z,98491.00
2023-04-15T00:35:12.006Z,98490.00
2023-04-15T00:37:41.414Z,98493.00
2023-04-15T00:40:15.358Z,98484.00
2023-04-15T00:42:44.565Z,98495.00
2023-04-15T00:45:14.292Z,98492.00
2023-04-15T00:47:47.324Z,98497.00
2023-04-15T00:50:16.800Z,98503.00
2023-04-15T00:52:46.096Z,98497.00
2023-04-15T00:55:15.569Z,98499.00
2023-04-15T00:57:46.063Z,98500.00
2023-04-15T01:00:15.814Z,98503.00
2023-04-15T01:02:45.124Z,98514.00
2023-04-15T01:05:14.810Z,98522.00
2023-04-15T01:07:44.502Z,98528.00
2023-04-15T01:10:14.166Z,98541.00
2023-04-15T01:12:43.552Z,98539.00
2023-04-15T01:15:13.244Z,98542.00
2023-04-15T01:17:44.763Z,98553.00
2023-04-15T01:20:14.606Z,98547.00
2023-04-15T01:22:43.993Z,98553.00
2023-04-15T01:25:20.589Z,98561.00
2023-04-15T01:27:50.036Z,98571.00
2023-04-15T01:30:19.590Z,98570.00
2023-04-15T01:32:48.975Z,98580.00
2023-04-15T01:35:18.498Z,98573.00
2023-04-15T01:37:48.371Z,98576.00
2023-04-15T01:40:17.753Z,98569.00
2023-04-15T01:42:47.888Z,98571.00
2023-04-15T01:45:17.645Z,98572.00
2023-04-15T01:47:47.136Z,98582.00
2023-04-15T01:50:16.578Z,98576.00
2023-04-15T01:52:49.383Z,98579.00
2023-04-15T01:55:18.683Z,98578.00
2023-04-15T01:57:48.351Z,98581.00
2023-04-15T02:00:18.611Z,98577.00
2023-04-15T02:02:51.364Z,98580.00
2023-04-15T02:05:20.697Z,98584.00
2023-04-15T02:07:50.589Z,98581.00
2023-04-15T02:10:19.960Z,98582.00
2023-04-15T02:12:49.267Z,98584.00
2023-04-15T02:15:18.579Z,98592.00
2023-04-15T02:20:24.280Z,98586.00
2023-04-15T02:22:53.758Z,98590.00
2023-04-15T02:25:23.041Z,98591.00
2023-04-15T02:27:52.712Z,98593.00
2023-04-15T02:30:39.366Z,98603.00
2023-04-15T02:33:08.992Z,98593.00
2023-04-15T02:35:40.292Z,98591.00
2023-04-15T02:38:10.508Z,98599.00
2023-04-15T02:40:39.880Z,98597.00
2023-04-15T02:43:09.266Z,98593.00
2023-04-15T02:45:38.592Z,98589.00
2023-04-15T02:48:08.027Z,98595.00
2023-04-15T02:50:38.838Z,98595.00
2023-04-15T02:53:08.694Z,98593.00
2023-04-15T02:55:37.969Z,98585.00
2023-04-15T02:58:07.409Z,98592.00
2023-04-15T03:00:37.154Z,98594.00
2023-04-15T03:03:07.889Z,98593.00
2023-04-15T03:05:39.946Z,98588.00
2023-04-15T03:08:09.273Z,98590.00
2023-04-15T03:10:38.490Z,98579.00
2023-04-15T03:13:07.692Z,98578.00
2023-04-15T03:15:37.453Z,98575.00
2023-04-15T03:18:06.928Z,98567.00
2023-04-15T03:20:38.107Z,98563.00
2023-04-15T03:23:07.479Z,98570.00
2023-04-15T03:25:38.346Z,98557.00
2023-04-15T03:28:08.133Z,98560.00
2023-04-15T03:30:37.316Z,98552.00
2023-04-15T03:33:06.506Z,98553.00
2023-04-15T03:35:36.488Z,98545.00
2023-04-15T03:38:05.805Z,98542.00
2023-04-15T03:40:35.322Z,98535.00
2023-04-15T03:43:04.575Z,98539.00
2023-04-15T03:45:33.852Z,98537.00
2023-04-15T03:48:16.628Z,98536.00
2023-04-15T03:50:47.351Z,98537.00
2023-04-15T03:53:17.436Z,98529.00
2023-04-15T03:55:46.722Z,98535.00
2023-04-15T03:58:15.908Z,98528.00
2023-04-15T04:00:45.099Z,98517.00
2023-04-15T04:03:14.638Z,98518.00
2023-04-15T04:05:45.391Z,98522.00
2023-04-15T04:08:17.691Z,98515.00
2023-04-15T04:10:46.981Z,98506.00
2023-04-15T04:13:16.508Z,98512.00
2023-04-15T04:15:45.977Z,98501.00
2023-04-15T04:18:15.493Z,98492.00
2023-04-15T04:20:45.356Z,98492.00
2023-04-15T04:23:14.794Z,98486.00
2023-04-15T04:25:44.557Z,98480.00
2023-04-15T04:28:13.896Z,98478.00
2023-04-15T04:30:43.265Z,98474.00
2023-04-15T04:33:12.723Z,98470.00
2023-04-15T04:35:42.431Z,98466.00
2023-04-15T04:38:12.000Z,98466.00
2023-04-15T04:40:41.330Z,98461.00
2023-04-15T04:43:11.056Z,98464.00
2023-04-15T04:45:40.461Z,98467.00
2023-04-15T04:48:11.543Z,98453.00
2023-04-15T04:50:40.962Z,98455.00
2023-04-15T04:53:10.299Z,98442.00
2023-04-15T04:55:39.657Z,98438.00
2023-04-15T04:58:08.977Z,98441.00
2023-04-15T05:00:39.464Z,98434.00
2023-04-15T05:03:09.064Z,98434.00
2023-04-15T05:05:40.418Z,98431.00
2023-04-15T05:08:10.295Z,98424.00
2023-04-15T05:10:39.649Z,98418.00
2023-04-15T05:13:08.985Z,98411.00
2023-04-15T05:15:40.725Z,98418.00
2023-04-15T05:18:10.057Z,98407.00
2023-04-15T05:20:39.906Z,98407.00
2023-04-15T05:23:09.679Z,98395.00
2023-04-15T05:25:39.018Z,98393.00
2023-04-15T05:28:08.432Z,98394.00
2023-04-15T05:30:37.704Z,98388.00
2023-04-15T05:33:07.162Z,98373.00
2023-04-15T05:35:36.635Z,98380.00
2023-04-15T05:38:05.916Z,98370.00
2023-04-15T05:40:35.295Z,98358.00
2023-04-15T05:43:04.644Z,98359.00
2023-04-15T05:45:34.188Z,98358.00
2023-04-15T05:48:03.498Z,98352.00
2023-04-15T05:50:32.829Z,98351.00
2023-04-15T05:53:03.008Z,98341.00
2023-04-15T05:55:32.518Z,98341.00
2023-04-15T05:58:01.842Z,98333.00
2023-04-15T06:00:32.163Z,98321.00
2023-04-15T06:03:01.967Z,98317.00
2023-04-15T06:05:31.283Z,98310.00
2023-04-15T06:08:00.504Z,98307.00
2023-04-15T06:10:30.180Z,98297.00
2023-04-15T06:12:59.490Z,98296.00
2023-04-15T06:15:28.840Z,98288.00
2023-04-15T06:17:58.271Z,98285.00
2023-04-15T06:20:28.926Z,98284.00
2023-04-15T06:22:59.067Z,98275.00
2023-04-15T06:25:28.492Z,98262.00
2023-04-15T06:27:57.688Z,98255.00
2023-04-15T06:30:26.827Z,98252.00
2023-04-15T06:32:57.474Z,98248.00
2023-04-15T06:35:26.963Z,98244.00
2023-04-15T06:37:56.170Z,98250.00
2023-04-15T06:40:26.238Z,98237.00
2023-04-15T06:42:55.497Z,98232.00
2023-04-15T06:45:24.743Z,98229.00
2023-04-15T06:47:53.985Z,98220.00
2023-04-15T06:50:23.219Z,98225.00
2023-04-15T06:52:52.386Z,98212.00
2023-04-15T06:55:21.809Z,98214.00
2023-04-15T06:57:51.036Z,98209.00
2023-04-15T07:00:21.253Z,98207.00
2023-04-15T07:02:50.559Z,98201.00
2023-04-15T07:05:19.996Z,98195.00
2023-04-15T07:07:49.288Z,98185.00
2023-04-15T07:10:18.553Z,98186.00
2023-04-15T07:12:47.685Z,98182.00
2023-04-15T07:15:16.889Z,98178.00
2023-04-15T07:17:46.178Z,98168.00
2023-04-15T07:20:16.064Z,98156.00
2023-04-15T07:22:46.007Z,98156.00
2023-04-15T07:25:15.340Z,98145.00
2023-04-15T07:27:44.578Z,98136.00
2023-04-15T07:30:14.534Z,98139.00
2023-04-15T07:32:44.648Z,98141.00
2023-04-15T07:35:14.491Z,98131.00
2023-04-15T07:37:44.411Z,98130.00
2023-04-15T07:40:15.598Z,98122.00
2023-04-15T07:54:34.172Z,98120.00
2023-04-15T07:57:04.128Z,98114.00
2023-04-15T07:59:34.501Z,98117.00
2023-04-15T08:02:04.354Z,98122.00
2023-04-15T08:04:34.982Z,98110.00
2023-04-15T08:07:06.016Z,98093.00
2023-04-15T08:09:35.278Z,98087.00
2023-04-15T08:12:05.362Z,98074.00
2023-04-15T08:14:34.549Z,98071.00
2023-04-15T08:17:03.656Z,98073.00
2023-04-15T08:19:33.163Z,98072.00
2023-04-15T08:22:02.463Z,98073.00
2023-04-15T08:24:33.492Z,98072.00
2023-04-15T08:27:05.437Z,98067.00
2023-04-15T08:29:35.892Z,98060.00
2023-04-15T08:32:05.318Z,98053.00
2023-04-15T08:34:34.669Z,98044.00
2023-04-15T08:37:03.848Z,98041.00
2023-04-15T08:39:33.007Z,98045.00
2023-04-15T08:42:10.018Z,98048.00
2023-04-15T08:44:39.922Z,98053.00
2023-04-15T08:47:14.407Z,98054.00
2023-04-15T08:49:45.925Z,98051.00
2023-04-15T08:52:15.339Z,98053.00
2023-04-15T08:54:44.849Z,98049.00
2023-04-15T08:57:15.205Z,98047.00
2023-04-15T08:59:45.567Z,98047.00
2023-04-15T09:02:15.181Z,98049.00
2023-04-15T09:04:44.412Z,98053.00
2023-04-15T09:07:13.571Z,98050.00
2023-04-15T09:09:43.225Z,98040.00
2023-04-15T09:12:13.617Z,98035.00
2023-04-15T09:14:49.236Z,98029.00
2023-04-15T09:17:27.531Z,98033.00
2023-04-15T09:20:23.052Z,98041.00
2023-04-15T09:22:53.651Z,98041.00
2023-04-15T09:25:25.905Z,98027.00
2023-04-15T09:28:02.147Z,98024.00
2023-04-15T09:30:32.311Z,98033.00
2023-04-15T09:33:05.825Z,98026.00
2023-04-15T09:35:38.760Z,98023.00
2023-04-15T09:38:12.262Z,98021.00
2023-04-15T09:40:43.199Z,98016.00
2023-04-15T09:43:15.636Z,98023.00
2023-04-15T09:45:53.024Z,98026.00
2023-04-15T09:48:32.157Z,98009.00
2023-04-15T09:51:02.708Z,98004.00
2023-04-15T09:53:36.071Z,98004.00
2023-04-15T09:56:08.768Z,98001.00
2023-04-15T09:58:39.833Z,97999.00
2023-04-15T10:01:10.074Z,97996.00
2023-04-15T10:03:43.285Z,97999.00
2023-04-15T10:06:13.006Z,97996.00
2023-04-15T10:08:43.738Z,97999.00
2023-04-15T10:11:13.905Z,97998.00
2023-04-15T10:13:43.660Z,98002.00
2023-04-15T10:16:23.016Z,98007.00
2023-04-15T10:18:59.622Z,98013.00
2023-04-15T10:21:31.786Z,98013.00
2023-04-15T10:24:03.461Z,98008.00
2023-04-15T10:26:33.290Z,98021.00
2023-04-15T10:29:03.554Z,98015.00
2023-04-15T10:31:33.476Z,98015.00
2023-04-15T10:34:06.202Z,98010.00
2023-04-15T10:36:36.095Z,98015.00
2023-04-15T10:39:38.427Z,98024.00
2023-04-15T10:42:36.865Z,98024.00
2023-04-15T10:45:19.011Z,98039.00
2023-04-15T10:47:52.855Z,98037.00
2023-04-15T10:50:23.320Z,98040.00
2023-04-15T10:52:54.561Z,98042.00
2023-04-15T10:55:32.917Z,98045.00
2023-04-15T10:58:04.167Z,98044.00
2023-04-15T11:00:38.591Z,98044.00
2023-04-15T11:03:11.246Z,98059.00
2023-04-15T11:05:55.109Z,98061.00
2023-04-15T11:08:59.791Z,98061.00
2023-04-15T11:12:11.440Z,98058.00
2023-04-15T11:14:44.459Z,98060.00
2023-04-15T11:17:13.977Z,98069.00
2023-04-15T11:19:43.279Z,98075.00
2023-04-15T11:22:13.530Z,98084.00
2023-04-15T11:24:51.781Z,98082.00
2023-04-15T11:27:25.587Z,98090.00
2023-04-15T11:29:54.920Z,98100.00
2023-04-15T11:32:24.544Z,98096.00
2023-04-15T11:34:54.515Z,98099.00
2023-04-15T11:37:31.724Z,98103.00
2023-04-15T11:40:00.990Z,98106.00
2023-04-15T11:42:42.811Z,98108.00
2023-04-15T11:45:18.354Z,98111.00
2023-04-15T11:47:47.712Z,98110.00
2023-04-15T11:50:23.364Z,98118.00
2023-04-15T11:53:02.395Z,98121.00
2023-04-15T11:55:33.147Z,98136.00
2023-04-15T11:58:23.576Z,98134.00
2023-04-15T12:01:03.042Z,98135.00
2023-04-15T12:03:44.948Z,98134.00
2023-04-15T12:06:28.775Z,98141.00
2023-04-15T12:09:03.638Z,98149.00
2023-04-15T12:11:37.564Z,98154.00
2023-04-15T12:14:23.731Z,98160.00
2023-04-15T12:16:59.421Z,98170.00
2023-04-15T12:19:40.129Z,98175.00
2023-04-15T12:22:17.274Z,98188.00
2023-04-15T12:24:49.216Z,98204.00
2023-04-15T12:27:19.006Z,98216.00
2023-04-15T12:29:48.294Z,98226.00
2023-04-15T12:32:21.824Z,98234.00
2023-04-15T12:34:56.252Z,98246.00
2023-04-15T12:37:25.600Z,98247.00
2023-04-15T12:39:55.396Z,98256.00
2023-04-15T12:42:24.681Z,98252.00
2023-04-15T12:44:53.996Z,98266.00
2023-04-15T12:47:23.355Z,98280.00
2023-04-15T12:49:52.657Z,98281.00
2023-04-15T12:52:23.084Z,98274.00
2023-04-15T12:54:52.486Z,98289.00
2023-04-15T12:57:21.734Z,98293.00
2023-04-15T12:59:51.062Z,98296.00
2023-04-15T13:02:22.292Z,98305.00
2023-04-15T13:04:51.798Z,98299.00
2023-04-15T13:07:21.392Z,98289.00
2023-04-15T13:09:50.793Z,98300.00
2023-04-15T13:12:20.139Z,98308.00
2023-04-15T13:14:49.402Z,98304.00
2023-04-15T13:17:21.373Z,98305.00
2023-04-15T13:19:50.853Z,98302.00
2023-04-15T13:22:20.532Z,98307.00
2023-04-15T13:24:50.594Z,98311.00
2023-04-15T13:27:19.844Z,98317.00
2023-04-15T13:29:49.107Z,98328.00
2023-04-15T13:32:18.399Z,98328.00
2023-04-15T13:34:47.655Z,98330.00
2023-04-15T13:37:17.350Z,98325.00
2023-04-15T13:39:46.796Z,98331.00
2023-04-15T13:42:16.338Z,98337.00
2023-04-15T13:44:45.606Z,98336.00
2023-04-15T13:47:17.056Z,98341.00
2023-04-15T13:49:46.416Z,98355.00
2023-04-15T13:52:15.784Z,98361.00
2023-04-15T13:54:45.101Z,98368.00
2023-04-15T13:57:15.439Z,98376.00
2023-04-15T13:59:45.237Z,98378.00
2023-04-15T14:02:14.606Z,98378.00
2023-04-15T14:04:43.970Z,98389.00
2023-04-15T14:07:13.263Z,98388.00
2023-04-15T14:09:43.346Z,98387.00
2023-04-15T14:12:13.136Z,98389.00
2023-04-15T14:14:42.714Z,98385.00
2023-04-15T14:17:12.142Z,98385.00
2023-04-15T14:19:41.676Z,98386.00
2023-04-15T14:22:11.090Z,98383.00
2023-04-15T14:24:40.463Z,98384.00
2023-04-15T14:27:09.810Z,98388.00
2023-04-15T14:29:39.344Z,98393.00
2023-04-15T14:32:11.372Z,98393.00
2023-04-15T14:34:42.845Z,98394.00
2023-04-15T14:37:12.339Z,98389.00
2023-04-15T14:39:41.985Z,98391.00
2023-04-15T14:42:11.444Z,98392.00
2023-04-15T14:44:40.808Z,98385.00
2023-04-15T14:47:10.061Z,98394.00
2023-04-15T14:49:39.856Z,98403.00
2023-04-15T14:52:09.164Z,98415.00
2023-04-15T14:54:38.429Z,98427.00
2023-04-15T14:57:08.691Z,98428.00
2023-04-15T14:59:37.929Z,98423.00
2023-04-15T15:02:07.523Z,98420.00
2023-04-15T15:04:37.577Z,98428.00
2023-04-15T15:07:07.071Z,98431.00
2023-04-15T15:09:36.506Z,98433.00
2023-04-15T15:12:05.987Z,98435.00
2023-04-15T15:14:35.378Z,98440.00
2023-04-15T15:17:04.768Z,98444.00
2023-04-15T15:19:34.312Z,98451.00
2023-04-15T15:22:04.673Z,98450.00
2023-04-15T15:24:34.019Z,98460.00
2023-04-15T15:27:04.040Z,98466.00
2023-04-15T15:29:33.309Z,98470.00
2023-04-15T15:32:02.735Z,98474.00
2023-04-15T15:34:32.047Z,98475.00
2023-04-15T15:37:02.402Z,98478.00
2023-04-15T15:39:31.872Z,98479.00
2023-04-15T15:42:01.191Z,98477.00
2023-04-15T15:44:31.223Z,98482.00
2023-04-15T15:47:01.647Z,98479.00
2023-04-15T15:49:31.119Z,98481.00
2023-04-15T15:52:00.868Z,98478.00
2023-04-15T15:54:30.768Z,98476.00
2023-04-15T15:57:00.145Z,98474.00
2023-04-15T15:59:29.489Z,98477.00
2023-04-15T16:01:59.098Z,98479.00
2023-04-15T16:04:28.802Z,98468.00
2023-04-15T16:06:58.361Z,98465.00
2023-04-15T16:09:27.685Z,98456.00
2023-04-15T16:11:57.043Z,98449.00
2023-04-15T16:14:28.083Z,98453.00
2023-04-15T16:16:57.423Z,98456.00
2023-04-15T16:19:26.807Z,98462.00
2023-04-15T16:21:56.794Z,98453.00
2023-04-15T16:24:26.809Z,98448.00
2023-04-15T16:26:56.100Z,98430.00
2023-04-15T16:29:25.385Z,98429.00
2023-04-15T16:31:54.803Z,98430.00
2023-04-15T16:34:24.140Z,98441.00
2023-04-15T16:36:53.384Z,98438.00
2023-04-15T16:39:24.228Z,98437.00
2023-04-15T16:41:53.513Z,98431.00
2023-04-15T16:44:22.849Z,98432.00
2023-04-15T16:46:52.151Z,98433.00
2023-04-15T16:49:21.597Z,98428.00
2023-04-15T16:51:51.708Z,98427.00
2023-04-15T16:54:22.324Z,98421.00
2023-04-15T16:56:52.058Z,98418.00
2023-04-15T16:59:21.221Z,98423.00
2023-04-15T17:01:50.535Z,98425.00
2023-04-15T17:04:19.920Z,98426.00
2023-04-15T17:06:49.386Z,98437.00
2023-04-15T17:09:18.960Z,98438.00
2023-04-15T17:11:48.166Z,98439.00
2023-04-15T17:14:17.369Z,98436.00
2023-04-15T17:16:47.387Z,98438.00
2023-04-15T17:19:16.626Z,98440.00
2023-04-15T17:21:45.772Z,98446.00
2023-04-15T17:24:15.169Z,98440.00
2023-04-15T17:26:44.784Z,98440.00
2023-04-15T17:29:14.505Z,98439.00
2023-04-15T17:31:43.990Z,98445.00
2023-04-15T17:34:15.909Z,98462.00
2023-04-15T17:36:45.512Z,98465.00
2023-04-15T17:39:15.979Z,98483.00
2023-04-15T17:41:45.599Z,98503.00
2023-04-15T17:44:14.784Z,98510.00
2023-04-15T17:46:44.122Z,98508.00
2023-04-15T17:49:13.326Z,98498.00
2023-04-15T17:51:42.553Z,98485.00
2023-04-15T17:54:12.073Z,98488.00
2023-04-15T17:56:41.316Z,98485.00
2023-04-15T17:59:10.883Z,98475.00
2023-04-15T18:01:40.192Z,98471.00
2023-04-15T18:04:10.538Z,98469.00
2023-04-15T18:06:41.000Z,98458.00
2023-04-15T18:09:10.143Z,98464.00
2023-04-15T18:11:41.052Z,98463.00
2023-04-15T18:14:11.236Z,98463.00
2023-04-15T18:16:41.447Z,98467.00
2023-04-15T18:19:11.892Z,98469.00
2023-04-15T18:21:41.135Z,98473.00
2023-04-15T18:24:10.393Z,98472.00
2023-04-15T18:26:39.882Z,98464.00
2023-04-15T18:29:09.167Z,98476.00
2023-04-15T18:31:38.442Z,98469.00
2023-04-15T18:34:08.164Z,98471.00
2023-04-15T18:36:37.500Z,98467.00
2023-04-15T18:39:07.092Z,98451.00
2023-04-15T18:41:36.398Z,98462.00
2023-04-15T18:44:05.575Z,98456.00
2023-04-15T18:46:34.922Z,98455.00
2023-04-15T18:49:05.238Z,98440.00
2023-04-15T18:51:34.590Z,98441.00
2023-04-15T18:54:04.201Z,98441.00
2023-04-15T18:56:33.527Z,98437.00
2023-04-15T18:59:19.069Z,98431.00
2023-04-15T19:01:52.771Z,98432.00
2023-04-15T19:04:22.296Z,98438.00
2023-04-15T19:06:51.665Z,98436.00
2023-04-15T19:09:20.946Z,98439.00
2023-04-15T19:11:50.135Z,98441.00
2023-04-15T19:14:19.965Z,98438.00
2023-04-15T19:16:49.266Z,98434.00
2023-04-15T19:19:18.475Z,98425.00
2023-04-15T19:21:50.705Z,98431.00
2023-04-15T19:24:20.859Z,98421.00
2023-04-15T19:26:52.112Z,98421.00
2023-04-15T19:29:21.570Z,98418.00
2023-04-15T19:31:50.786Z,98409.00
2023-04-15T19:34:19.983Z,98399.00
2023-04-15T19:36:49.252Z,98397.00
2023-04-15T19:39:18.830Z,98400.00
2023-04-15T19:41:48.268Z,98400.00
2023-04-15T19:44:17.490Z,98408.00
2023-04-15T19:46:50.789Z,98414.00
2023-04-15T19:49:21.116Z,98417.00
2023-04-15T19:51:51.660Z,98421.00
2023-04-15T19:54:21.348Z,98417.00
2023-04-15T19:56:50.664Z,98412.00
2023-04-15T19:59:19.964Z,98426.00
2023-04-15T20:01:49.424Z,98413.00
2023-04-15T20:04:18.846Z,98409.00
2023-04-15T20:06:48.157Z,98409.00
2023-04-15T20:09:17.646Z,98419.00
2023-04-15T20:12:47.822Z,98415.00
2023-04-15T20:14:36.909Z,98412.00
2023-04-15T20:17:06.362Z,98416.00
2023-04-15T20:19:35.624Z,98418.00
2023-04-15T20:22:04.933Z,98417.00
2023-04-15T20:24:34.209Z,98419.00
2023-04-15T20:27:04.877Z,98422.00
2023-04-15T20:29:34.421Z,98417.00
2023-04-15T20:32:03.698Z,98415.00
2023-04-15T20:34:33.312Z,98414.00
2023-04-15T20:37:02.648Z,98421.00
2023-04-15T20:39:32.182Z,98425.00
2023-04-15T20:42:02.558Z,98421.00
2023-04-15T20:44:32.016Z,98413.00
2023-04-15T20:47:01.553Z,98414.00
2023-04-15T20:49:35.660Z,98417.00
2023-04-15T20:52:09.435Z,98401.00
2023-04-15T20:54:39.006Z,98410.00
2023-04-15T20:57:08.263Z,98409.00
2023-04-15T20:59:37.541Z,98405.00
2023-04-15T21:02:07.030Z,98411.00
2023-04-15T21:04:36.823Z,98421.00
2023-04-15T21:07:06.193Z,98431.00
2023-04-15T21:09:35.499Z,98425.00
2023-04-15T21:12:04.751Z,98429.00
2023-04-15T21:14:35.975Z,98434.00
2023-04-15T21:17:10.194Z,98432.00
2023-04-15T21:19:41.419Z,98435.00
2023-04-15T21:22:11.004Z,98439.00
2023-04-15T21:24:40.173Z,98440.00
2023-04-15T21:27:12.116Z,98441.00
2023-04-15T21:29:41.897Z,98439.00
2023-04-15T21:32:11.670Z,98436.00
2023-04-15T21:34:40.964Z,98440.00
2023-04-15T21:37:10.248Z,98439.00
2023-04-15T21:39:39.402Z,98446.00
2023-04-15T21:42:09.664Z,98451.00
2023-04-15T21:44:38.948Z,98454.00
2023-04-15T21:47:08.158Z,98456.00
2023-04-15T21:49:37.614Z,98457.00
2023-04-15T21:52:07.005Z,98453.00
2023-04-15T21:54:38.979Z,98450.00
2023-04-15T21:57:08.328Z,98454.00
2023-04-15T21:59:37.502Z,98449.00
2023-04-15T22:02:06.940Z,98468.00
2023-04-15T22:04:36.593Z,98474.00
2023-04-15T22:07:05.840Z,98475.00
2023-04-15T22:09:35.129Z,98482.00
2023-04-15T22:12:06.554Z,98477.00
2023-04-15T22:14:35.741Z,98482.00
2023-04-15T22:17:04.993Z,98488.00
2023-04-15T22:19:34.241Z,98485.00
2023-04-15T22:22:03.441Z,98491.00
2023-04-15T22:24:39.873Z,98491.00
2023-04-15T22:27:10.347Z,98493.00
2023-04-15T22:29:39.550Z,98495.00
2023-04-15T22:32:11.475Z,98507.00
2023-04-15T22:34:40.653Z,98510.00
2023-04-15T22:37:09.788Z,98509.00
2023-04-15T22:39:39.003Z,98520.00
2023-04-15T22:42:08.182Z,98526.00
2023-04-15T22:44:37.460Z,98526.00
2023-04-15T22:47:06.833Z,98518.00
2023-04-15T22:49:37.216Z,98516.00
2023-04-15T22:52:07.932Z,98514.00
2023-04-15T22:54:38.566Z,98527.00
2023-04-15T22:57:07.824Z,98528.00
2023-04-15T22:59:36.972Z,98530.00
2023-04-15T23:02:06.241Z,98522.00
2023-04-15T23:04:36.171Z,98525.00
2023-04-15T23:07:06.180Z,98525.00
2023-04-15T23:09:35.428Z,98522.00
2023-04-15T23:12:05.172Z,98520.00
2023-04-15T23:14:34.512Z,98517.00
2023-04-15T23:17:03.754Z,98513.00
2023-04-15T23:19:32.901Z,98520.00
2023-04-15T23:22:02.190Z,98524.00
2023-04-15T23:24:31.545Z,98528.00
2023-04-15T23:27:00.757Z,98524.00
2023-04-15T23:29:29.990Z,98526.00
2023-04-15T23:31:59.595Z,98535.00
2023-04-15T23:34:28.832Z,98550.00
2023-04-15T23:36:58.016Z,98541.00
2023-04-15T23:39:31.073Z,98554.00
2023-04-15T23:42:00.319Z,98556.00
2023-04-15T23:44:29.572Z,98564.00
2023-04-15T23:46:58.757Z,98564.00
2023-04-15T23:49:28.049Z,98559.00
2023-04-15T23:51:58.122Z,98577.00
2023-04-15T23:54:27.681Z,98573.00
2023-04-15T23:56:57.415Z,98578.00
2023-04-15T23:59:26.840Z,98579.00
